sensor_id;sensor_type;location;lat;lon;timestamp;P1;durP1;ratioP1;P2;durP2;ratioP2
19566;SDS011;9930;49.240;8.548;2022-12-16T00:02:04;12.27;;;10.03;;
19566;SDS011;9930;49.240;8.548;2022-12-16T00:04:31;13.77;;;10.63;;
19566;SDS011;9930;49.240;8.548;2022-12-16T00:06:59;13.73;;;9.90;;
19566;SDS011;9930;49.240;8.548;2022-12-16T00:09:25;13.07;;;9.90;;
19566;SDS011;9930;49.240;8.548;2022-12-16T00:11:53;14.57;;;10.77;;
19566;SDS011;9930;49.240;8.548;2022-12-16T00:14:18;15.23;;;11.13;;
19566;SDS011;9930;49.240;8.548;2022-12-16T00:16:44;15.30;;;11.47;;
19566;SDS011;9930;49.240;8.548;2022-12-16T00:19:10;17.13;;;12.57;;
19566;SDS011;9930;49.240;8.548;2022-12-16T00:21:38;17.13;;;12.63;;
19566;SDS011;9930;49.240;8.548;2022-12-16T00:24:03;13.30;;;10.53;;
19566;SDS011;9930;49.240;8.548;2022-12-16T00:26:31;13.07;;;10.00;;
19566;SDS011;9930;49.240;8.548;2022-12-16T00:28:57;14.17;;;10.80;;
19566;SDS011;9930;49.240;8.548;2022-12-16T00:31:23;14.93;;;11.27;;
19566;SDS011;9930;49.240;8.548;2022-12-16T00:33:54;13.80;;;9.50;;
19566;SDS011;9930;49.240;8.548;2022-12-16T00:36:21;14.33;;;10.47;;
19566;SDS011;9930;49.240;8.548;2022-12-16T00:38:50;14.27;;;10.27;;
19566;SDS011;9930;49.240;8.548;2022-12-16T00:41:16;12.77;;;9.83;;
19566;SDS011;9930;49.240;8.548;2022-12-16T00:43:42;13.87;;;9.87;;
19566;SDS011;9930;49.240;8.548;2022-12-16T00:46:11;12.73;;;10.10;;
19566;SDS011;9930;49.240;8.548;2022-12-16T00:48:36;15.03;;;10.63;;
19566;SDS011;9930;49.240;8.548;2022-12-16T00:51:02;12.77;;;10.13;;
19566;SDS011;9930;49.240;8.548;2022-12-16T00:53:28;13.37;;;10.73;;
19566;SDS011;9930;49.240;8.548;2022-12-16T00:56:09;12.90;;;9.63;;
19566;SDS011;9930;49.240;8.548;2022-12-16T00:58:39;12.73;;;9.60;;
19566;SDS011;9930;49.240;8.548;2022-12-16T01:01:08;13.57;;;10.57;;
19566;SDS011;9930;49.240;8.548;2022-12-16T01:03:38;12.57;;;9.40;;
19566;SDS011;9930;49.240;8.548;2022-12-16T01:06:12;11.90;;;9.23;;
19566;SDS011;9930;49.240;8.548;2022-12-16T01:08:40;13.53;;;9.63;;
19566;SDS011;9930;49.240;8.548;2022-12-16T01:11:14;11.70;;;9.27;;
19566;SDS011;9930;49.240;8.548;2022-12-16T01:13:42;11.87;;;9.20;;
19566;SDS011;9930;49.240;8.548;2022-12-16T01:16:10;12.30;;;9.43;;
19566;SDS011;9930;49.240;8.548;2022-12-16T01:18:36;14.63;;;9.53;;
19566;SDS011;9930;49.240;8.548;2022-12-16T01:21:05;14.77;;;10.77;;
19566;SDS011;9930;49.240;8.548;2022-12-16T01:23:33;13.77;;;10.03;;
19566;SDS011;9930;49.240;8.548;2022-12-16T01:25:59;13.33;;;10.10;;
19566;SDS011;9930;49.240;8.548;2022-12-16T01:28:28;12.83;;;10.17;;
19566;SDS011;9930;49.240;8.548;2022-12-16T01:30:57;31.80;;;19.73;;
19566;SDS011;9930;49.240;8.548;2022-12-16T01:33:28;22.43;;;14.40;;
19566;SDS011;9930;49.240;8.548;2022-12-16T01:38:34;12.23;;;9.50;;
19566;SDS011;9930;49.240;8.548;2022-12-16T01:41:01;12.90;;;9.60;;
19566;SDS011;9930;49.240;8.548;2022-12-16T01:43:30;11.10;;;9.00;;
19566;SDS011;9930;49.240;8.548;2022-12-16T01:46:12;11.67;;;8.60;;
19566;SDS011;9930;49.240;8.548;2022-12-16T01:51:35;13.23;;;9.50;;
19566;SDS011;9930;49.240;8.548;2022-12-16T01:54:13;12.20;;;9.40;;
19566;SDS011;9930;49.240;8.548;2022-12-16T01:56:56;11.93;;;9.10;;
19566;SDS011;9930;49.240;8.548;2022-12-16T01:59:27;13.53;;;10.00;;
19566;SDS011;9930;49.240;8.548;2022-12-16T02:01:59;13.83;;;9.50;;
19566;SDS011;9930;49.240;8.548;2022-12-16T02:04:28;10.90;;;9.17;;
19566;SDS011;9930;49.240;8.548;2022-12-16T02:06:54;12.77;;;8.27;;
19566;SDS011;9930;49.240;8.548;2022-12-16T02:09:21;11.00;;;8.33;;
19566;SDS011;9930;49.240;8.548;2022-12-16T02:12:08;11.80;;;8.77;;
19566;SDS011;9930;49.240;8.548;2022-12-16T02:35:32;9.73;;;8.33;;
19566;SDS011;9930;49.240;8.548;2022-12-16T02:38:31;10.40;;;7.87;;
19566;SDS011;9930;49.240;8.548;2022-12-16T02:41:01;11.13;;;8.20;;
19566;SDS011;9930;49.240;8.548;2022-12-16T02:46:17;10.17;;;7.90;;
19566;SDS011;9930;49.240;8.548;2022-12-16T02:48:47;10.13;;;7.90;;
19566;SDS011;9930;49.240;8.548;2022-12-16T02:51:13;9.87;;;7.60;;
19566;SDS011;9930;49.240;8.548;2022-12-16T02:53:39;11.47;;;8.20;;
19566;SDS011;9930;49.240;8.548;2022-12-16T03:07:35;9.80;;;7.67;;
19566;SDS011;9930;49.240;8.548;2022-12-16T03:10:07;9.53;;;7.93;;
19566;SDS011;9930;49.240;8.548;2022-12-16T03:12:41;9.50;;;7.90;;
19566;SDS011;9930;49.240;8.548;2022-12-16T03:15:14;8.93;;;7.37;;
19566;SDS011;9930;49.240;8.548;2022-12-16T03:17:49;10.60;;;7.63;;
19566;SDS011;9930;49.240;8.548;2022-12-16T03:20:23;9.93;;;7.57;;
19566;SDS011;9930;49.240;8.548;2022-12-16T03:23:01;12.27;;;8.27;;
19566;SDS011;9930;49.240;8.548;2022-12-16T03:25:33;9.57;;;7.73;;
19566;SDS011;9930;49.240;8.548;2022-12-16T03:28:08;9.13;;;7.83;;
19566;SDS011;9930;49.240;8.548;2022-12-16T03:31:37;10.83;;;7.70;;
19566;SDS011;9930;49.240;8.548;2022-12-16T03:37:10;10.17;;;8.03;;
19566;SDS011;9930;49.240;8.548;2022-12-16T03:39:43;10.77;;;7.47;;
19566;SDS011;9930;49.240;8.548;2022-12-16T03:42:15;9.30;;;7.13;;
19566;SDS011;9930;49.240;8.548;2022-12-16T03:44:42;10.13;;;7.57;;
19566;SDS011;9930;49.240;8.548;2022-12-16T03:47:15;9.97;;;7.30;;
19566;SDS011;9930;49.240;8.548;2022-12-16T03:49:41;10.87;;;7.97;;
19566;SDS011;9930;49.240;8.548;2022-12-16T03:52:06;10.73;;;7.83;;
19566;SDS011;9930;49.240;8.548;2022-12-16T03:54:32;10.17;;;7.73;;
19566;SDS011;9930;49.240;8.548;2022-12-16T03:57:01;10.77;;;8.03;;
19566;SDS011;9930;49.240;8.548;2022-12-16T03:59:27;10.93;;;8.33;;
19566;SDS011;9930;49.240;8.548;2022-12-16T04:01:58;10.80;;;7.73;;
19566;SDS011;9930;49.240;8.548;2022-12-16T04:04:24;9.37;;;7.37;;
19566;SDS011;9930;49.240;8.548;2022-12-16T04:06:49;10.37;;;7.80;;
19566;SDS011;9930;49.240;8.548;2022-12-16T04:09:35;11.57;;;7.83;;
19566;SDS011;9930;49.240;8.548;2022-12-16T04:12:01;10.00;;;7.13;;
19566;SDS011;9930;49.240;8.548;2022-12-16T04:14:48;10.47;;;7.87;;
19566;SDS011;9930;49.240;8.548;2022-12-16T04:17:32;9.93;;;7.57;;
19566;SDS011;9930;49.240;8.548;2022-12-16T04:20:17;9.83;;;7.40;;
19566;SDS011;9930;49.240;8.548;2022-12-16T04:23:11;11.03;;;7.97;;
19566;SDS011;9930;49.240;8.548;2022-12-16T04:25:58;9.33;;;6.90;;
19566;SDS011;9930;49.240;8.548;2022-12-16T04:28:32;11.33;;;8.17;;
19566;SDS011;9930;49.240;8.548;2022-12-16T04:30:59;11.47;;;8.87;;
19566;SDS011;9930;49.240;8.548;2022-12-16T04:33:31;10.50;;;8.57;;
19566;SDS011;9930;49.240;8.548;2022-12-16T04:36:18;12.87;;;8.93;;
19566;SDS011;9930;49.240;8.548;2022-12-16T04:39:05;11.17;;;7.87;;
19566;SDS011;9930;49.240;8.548;2022-12-16T04:41:52;11.03;;;8.27;;
19566;SDS011;9930;49.240;8.548;2022-12-16T04:44:40;12.07;;;8.50;;
19566;SDS011;9930;49.240;8.548;2022-12-16T04:47:25;10.63;;;8.03;;
19566;SDS011;9930;49.240;8.548;2022-12-16T04:50:09;10.50;;;7.70;;
19566;SDS011;9930;49.240;8.548;2022-12-16T04:52:56;11.13;;;8.13;;
19566;SDS011;9930;49.240;8.548;2022-12-16T04:56:05;10.00;;;7.63;;
19566;SDS011;9930;49.240;8.548;2022-12-16T04:59:01;11.30;;;7.97;;
19566;SDS011;9930;49.240;8.548;2022-12-16T05:01:58;10.87;;;8.27;;
19566;SDS011;9930;49.240;8.548;2022-12-16T05:04:49;9.33;;;7.70;;
19566;SDS011;9930;49.240;8.548;2022-12-16T05:07:39;10.10;;;7.87;;
19566;SDS011;9930;49.240;8.548;2022-12-16T05:10:23;11.07;;;7.87;;
19566;SDS011;9930;49.240;8.548;2022-12-16T05:13:07;11.33;;;7.87;;
19566;SDS011;9930;49.240;8.548;2022-12-16T05:15:51;9.40;;;7.50;;
19566;SDS011;9930;49.240;8.548;2022-12-16T05:18:38;10.83;;;7.77;;
19566;SDS011;9930;49.240;8.548;2022-12-16T05:21:22;10.77;;;7.63;;
19566;SDS011;9930;49.240;8.548;2022-12-16T05:24:09;9.77;;;7.10;;
19566;SDS011;9930;49.240;8.548;2022-12-16T05:27:14;10.63;;;7.57;;
19566;SDS011;9930;49.240;8.548;2022-12-16T05:30:01;11.00;;;7.70;;
19566;SDS011;9930;49.240;8.548;2022-12-16T05:32:49;11.13;;;7.97;;
19566;SDS011;9930;49.240;8.548;2022-12-16T05:35:44;9.43;;;7.23;;
19566;SDS011;9930;49.240;8.548;2022-12-16T05:38:29;10.87;;;7.27;;
19566;SDS011;9930;49.240;8.548;2022-12-16T05:41:14;12.77;;;8.23;;
19566;SDS011;9930;49.240;8.548;2022-12-16T05:43:58;10.83;;;8.13;;
19566;SDS011;9930;49.240;8.548;2022-12-16T05:46:42;9.40;;;7.60;;
19566;SDS011;9930;49.240;8.548;2022-12-16T05:49:30;10.07;;;7.73;;
19566;SDS011;9930;49.240;8.548;2022-12-16T05:52:29;11.87;;;7.70;;
19566;SDS011;9930;49.240;8.548;2022-12-16T05:55:15;14.27;;;8.53;;
19566;SDS011;9930;49.240;8.548;2022-12-16T05:58:29;11.03;;;8.27;;
19566;SDS011;9930;49.240;8.548;2022-12-16T06:01:24;12.17;;;8.53;;
19566;SDS011;9930;49.240;8.548;2022-12-16T06:04:08;13.40;;;9.00;;
19566;SDS011;9930;49.240;8.548;2022-12-16T06:06:55;13.97;;;9.03;;
19566;SDS011;9930;49.240;8.548;2022-12-16T06:09:45;17.17;;;11.00;;
19566;SDS011;9930;49.240;8.548;2022-12-16T06:12:29;15.67;;;10.50;;
19566;SDS011;9930;49.240;8.548;2022-12-16T06:15:16;43.00;;;23.47;;
19566;SDS011;9930;49.240;8.548;2022-12-16T06:18:01;26.03;;;15.93;;
19566;SDS011;9930;49.240;8.548;2022-12-16T06:20:49;17.57;;;11.43;;
19566;SDS011;9930;49.240;8.548;2022-12-16T06:23:58;16.00;;;10.17;;
19566;SDS011;9930;49.240;8.548;2022-12-16T06:26:52;13.57;;;9.10;;
19566;SDS011;9930;49.240;8.548;2022-12-16T06:29:36;13.93;;;8.87;;
19566;SDS011;9930;49.240;8.548;2022-12-16T06:32:26;15.83;;;9.47;;
19566;SDS011;9930;49.240;8.548;2022-12-16T06:35:32;14.27;;;9.30;;
19566;SDS011;9930;49.240;8.548;2022-12-16T06:38:31;12.23;;;8.80;;
19566;SDS011;9930;49.240;8.548;2022-12-16T06:41:23;12.10;;;8.23;;
19566;SDS011;9930;49.240;8.548;2022-12-16T06:44:08;12.47;;;8.30;;
19566;SDS011;9930;49.240;8.548;2022-12-16T06:46:52;12.90;;;9.07;;
19566;SDS011;9930;49.240;8.548;2022-12-16T06:49:36;13.70;;;9.40;;
19566;SDS011;9930;49.240;8.548;2022-12-16T06:52:36;14.67;;;9.50;;
19566;SDS011;9930;49.240;8.548;2022-12-16T06:55:27;17.67;;;10.67;;
19566;SDS011;9930;49.240;8.548;2022-12-16T06:58:12;12.57;;;9.23;;
19566;SDS011;9930;49.240;8.548;2022-12-16T07:00:59;17.43;;;11.10;;
19566;SDS011;9930;49.240;8.548;2022-12-16T07:11:12;17.77;;;12.10;;
19566;SDS011;9930;49.240;8.548;2022-12-16T07:13:56;15.60;;;11.50;;
19566;SDS011;9930;49.240;8.548;2022-12-16T07:19:51;16.13;;;11.97;;
19566;SDS011;9930;49.240;8.548;2022-12-16T07:26:17;18.03;;;11.37;;
19566;SDS011;9930;49.240;8.548;2022-12-16T07:29:01;15.67;;;10.47;;
19566;SDS011;9930;49.240;8.548;2022-12-16T07:31:48;17.47;;;11.50;;
19566;SDS011;9930;49.240;8.548;2022-12-16T07:34:34;16.47;;;11.67;;
19566;SDS011;9930;49.240;8.548;2022-12-16T07:37:20;19.67;;;11.80;;
19566;SDS011;9930;49.240;8.548;2022-12-16T07:40:05;13.70;;;10.53;;
19566;SDS011;9930;49.240;8.548;2022-12-16T07:42:51;17.97;;;11.47;;
19566;SDS011;9930;49.240;8.548;2022-12-16T07:45:36;15.87;;;10.90;;
19566;SDS011;9930;49.240;8.548;2022-12-16T07:48:20;17.10;;;10.87;;
19566;SDS011;9930;49.240;8.548;2022-12-16T07:51:05;16.67;;;10.40;;
19566;SDS011;9930;49.240;8.548;2022-12-16T07:53:50;15.43;;;11.20;;
19566;SDS011;9930;49.240;8.548;2022-12-16T07:56:36;16.37;;;10.20;;
19566;SDS011;9930;49.240;8.548;2022-12-16T07:59:20;14.93;;;9.20;;
19566;SDS011;9930;49.240;8.548;2022-12-16T08:02:09;14.80;;;8.90;;
19566;SDS011;9930;49.240;8.548;2022-12-16T08:04:53;13.37;;;9.27;;
19566;SDS011;9930;49.240;8.548;2022-12-16T08:07:40;11.93;;;8.50;;
19566;SDS011;9930;49.240;8.548;2022-12-16T08:10:28;12.10;;;7.63;;
19566;SDS011;9930;49.240;8.548;2022-12-16T08:13:12;10.63;;;7.43;;
19566;SDS011;9930;49.240;8.548;2022-12-16T08:15:59;12.17;;;8.20;;
19566;SDS011;9930;49.240;8.548;2022-12-16T08:18:43;12.60;;;8.47;;
19566;SDS011;9930;49.240;8.548;2022-12-16T08:21:27;13.20;;;8.27;;
19566;SDS011;9930;49.240;8.548;2022-12-16T08:24:11;11.93;;;7.57;;
19566;SDS011;9930;49.240;8.548;2022-12-16T08:26:55;11.60;;;8.00;;
19566;SDS011;9930;49.240;8.548;2022-12-16T08:29:42;13.93;;;8.53;;
19566;SDS011;9930;49.240;8.548;2022-12-16T08:32:28;12.40;;;8.33;;
19566;SDS011;9930;49.240;8.548;2022-12-16T08:35:15;13.23;;;8.90;;
19566;SDS011;9930;49.240;8.548;2022-12-16T08:38:03;14.87;;;8.83;;
19566;SDS011;9930;49.240;8.548;2022-12-16T08:40:53;15.87;;;9.47;;
19566;SDS011;9930;49.240;8.548;2022-12-16T08:43:38;12.07;;;8.57;;
19566;SDS011;9930;49.240;8.548;2022-12-16T08:46:22;17.23;;;10.50;;
19566;SDS011;9930;49.240;8.548;2022-12-16T08:49:06;17.87;;;11.67;;
19566;SDS011;9930;49.240;8.548;2022-12-16T08:51:51;15.50;;;10.70;;
19566;SDS011;9930;49.240;8.548;2022-12-16T08:54:43;16.13;;;10.63;;
19566;SDS011;9930;49.240;8.548;2022-12-16T08:57:27;15.17;;;9.87;;
19566;SDS011;9930;49.240;8.548;2022-12-16T09:00:11;16.30;;;10.63;;
19566;SDS011;9930;49.240;8.548;2022-12-16T09:02:56;15.80;;;10.47;;
19566;SDS011;9930;49.240;8.548;2022-12-16T09:05:41;17.30;;;11.93;;
19566;SDS011;9930;49.240;8.548;2022-12-16T09:08:26;20.93;;;14.10;;
19566;SDS011;9930;49.240;8.548;2022-12-16T09:11:11;19.77;;;13.83;;
19566;SDS011;9930;49.240;8.548;2022-12-16T09:13:58;21.57;;;14.87;;
19566;SDS011;9930;49.240;8.548;2022-12-16T09:16:44;22.97;;;16.07;;
19566;SDS011;9930;49.240;8.548;2022-12-16T09:19:28;23.47;;;17.17;;
19566;SDS011;9930;49.240;8.548;2022-12-16T09:22:12;23.53;;;16.47;;
19566;SDS011;9930;49.240;8.548;2022-12-16T09:24:56;18.60;;;14.07;;
19566;SDS011;9930;49.240;8.548;2022-12-16T09:27:40;16.73;;;12.20;;
19566;SDS011;9930;49.240;8.548;2022-12-16T09:30:24;14.20;;;11.10;;
19566;SDS011;9930;49.240;8.548;2022-12-16T09:33:08;16.37;;;12.53;;
19566;SDS011;9930;49.240;8.548;2022-12-16T09:35:56;16.43;;;11.07;;
19566;SDS011;9930;49.240;8.548;2022-12-16T09:38:40;15.40;;;11.20;;
19566;SDS011;9930;49.240;8.548;2022-12-16T09:41:27;14.63;;;10.77;;
19566;SDS011;9930;49.240;8.548;2022-12-16T09:44:29;12.23;;;10.33;;
19566;SDS011;9930;49.240;8.548;2022-12-16T09:50:42;18.00;;;12.80;;
19566;SDS011;9930;49.240;8.548;2022-12-16T09:53:30;17.73;;;13.03;;
19566;SDS011;9930;49.240;8.548;2022-12-16T09:56:22;14.67;;;12.57;;
19566;SDS011;9930;49.240;8.548;2022-12-16T09:59:14;15.97;;;12.03;;
19566;SDS011;9930;49.240;8.548;2022-12-16T10:02:11;17.70;;;12.90;;
19566;SDS011;9930;49.240;8.548;2022-12-16T10:04:57;18.93;;;13.80;;
19566;SDS011;9930;49.240;8.548;2022-12-16T10:07:46;16.90;;;11.97;;
19566;SDS011;9930;49.240;8.548;2022-12-16T10:13:53;17.00;;;14.43;;
19566;SDS011;9930;49.240;8.548;2022-12-16T10:20:19;16.13;;;12.43;;
19566;SDS011;9930;49.240;8.548;2022-12-16T10:23:39;18.60;;;14.03;;
19566;SDS011;9930;49.240;8.548;2022-12-16T10:26:57;19.03;;;15.03;;
19566;SDS011;9930;49.240;8.548;2022-12-16T10:30:00;29.47;;;20.33;;
19566;SDS011;9930;49.240;8.548;2022-12-16T10:32:54;25.87;;;18.73;;
19566;SDS011;9930;49.240;8.548;2022-12-16T10:35:46;26.70;;;21.13;;
19566;SDS011;9930;49.240;8.548;2022-12-16T10:41:38;17.77;;;13.03;;
19566;SDS011;9930;49.240;8.548;2022-12-16T10:44:39;14.13;;;10.77;;
19566;SDS011;9930;49.240;8.548;2022-12-16T10:47:40;11.17;;;8.90;;
19566;SDS011;9930;49.240;8.548;2022-12-16T10:50:25;12.10;;;8.70;;
19566;SDS011;9930;49.240;8.548;2022-12-16T10:59:15;10.17;;;8.20;;
19566;SDS011;9930;49.240;8.548;2022-12-16T11:02:01;9.07;;;7.83;;
19566;SDS011;9930;49.240;8.548;2022-12-16T11:08:25;12.13;;;9.60;;
19566;SDS011;9930;49.240;8.548;2022-12-16T11:11:27;13.10;;;10.67;;
19566;SDS011;9930;49.240;8.548;2022-12-16T11:14:31;9.47;;;7.97;;
19566;SDS011;9930;49.240;8.548;2022-12-16T11:17:22;9.90;;;7.73;;
19566;SDS011;9930;49.240;8.548;2022-12-16T11:26:16;8.23;;;7.23;;
19566;SDS011;9930;49.240;8.548;2022-12-16T11:29:16;9.27;;;6.83;;
19566;SDS011;9930;49.240;8.548;2022-12-16T11:32:23;8.20;;;6.63;;
19566;SDS011;9930;49.240;8.548;2022-12-16T11:35:14;8.67;;;6.50;;
19566;SDS011;9930;49.240;8.548;2022-12-16T11:38:05;9.03;;;6.50;;
19566;SDS011;9930;49.240;8.548;2022-12-16T11:41:27;8.77;;;6.67;;
19566;SDS011;9930;49.240;8.548;2022-12-16T11:44:28;8.67;;;6.87;;
19566;SDS011;9930;49.240;8.548;2022-12-16T11:47:53;8.73;;;7.30;;
19566;SDS011;9930;49.240;8.548;2022-12-16T11:50:50;8.73;;;6.90;;
19566;SDS011;9930;49.240;8.548;2022-12-16T11:53:41;7.97;;;6.83;;
19566;SDS011;9930;49.240;8.548;2022-12-16T11:56:37;9.47;;;7.27;;
19566;SDS011;9930;49.240;8.548;2022-12-16T11:59:30;9.67;;;7.00;;
19566;SDS011;9930;49.240;8.548;2022-12-16T12:05:27;8.80;;;7.33;;
19566;SDS011;9930;49.240;8.548;2022-12-16T12:11:48;9.47;;;7.23;;
19566;SDS011;9930;49.240;8.548;2022-12-16T12:15:42;8.00;;;6.60;;
19566;SDS011;9930;49.240;8.548;2022-12-16T12:18:47;8.27;;;6.20;;
19566;SDS011;9930;49.240;8.548;2022-12-16T12:22:16;9.30;;;7.33;;
19566;SDS011;9930;49.240;8.548;2022-12-16T12:34:52;7.23;;;6.43;;
19566;SDS011;9930;49.240;8.548;2022-12-16T12:37:41;8.27;;;6.70;;
19566;SDS011;9930;49.240;8.548;2022-12-16T12:47:26;9.20;;;7.40;;
19566;SDS011;9930;49.240;8.548;2022-12-16T12:50:16;8.37;;;7.10;;
19566;SDS011;9930;49.240;8.548;2022-12-16T12:53:39;8.47;;;6.93;;
19566;SDS011;9930;49.240;8.548;2022-12-16T12:56:51;7.13;;;6.23;;
19566;SDS011;9930;49.240;8.548;2022-12-16T12:59:59;8.90;;;7.07;;
19566;SDS011;9930;49.240;8.548;2022-12-16T13:06:13;8.17;;;6.50;;
19566;SDS011;9930;49.240;8.548;2022-12-16T13:09:20;9.17;;;7.27;;
19566;SDS011;9930;49.240;8.548;2022-12-16T13:15:01;10.73;;;7.43;;
19566;SDS011;9930;49.240;8.548;2022-12-16T13:20:47;8.87;;;7.57;;
19566;SDS011;9930;49.240;8.548;2022-12-16T13:23:43;8.20;;;7.13;;
19566;SDS011;9930;49.240;8.548;2022-12-16T13:26:30;9.27;;;7.33;;
19566;SDS011;9930;49.240;8.548;2022-12-16T13:32:16;8.23;;;7.30;;
19566;SDS011;9930;49.240;8.548;2022-12-16T13:40:57;7.87;;;6.93;;
19566;SDS011;9930;49.240;8.548;2022-12-16T13:44:09;8.67;;;7.00;;
19566;SDS011;9930;49.240;8.548;2022-12-16T13:46:56;9.83;;;7.67;;
19566;SDS011;9930;49.240;8.548;2022-12-16T13:52:34;8.53;;;7.60;;
19566;SDS011;9930;49.240;8.548;2022-12-16T14:04:49;8.80;;;7.90;;
19566;SDS011;9930;49.240;8.548;2022-12-16T14:07:37;10.67;;;8.10;;
19566;SDS011;9930;49.240;8.548;2022-12-16T14:10:24;9.80;;;7.47;;
19566;SDS011;9930;49.240;8.548;2022-12-16T14:16:20;8.47;;;7.03;;
19566;SDS011;9930;49.240;8.548;2022-12-16T14:26:08;8.43;;;6.80;;
19566;SDS011;9930;49.240;8.548;2022-12-16T14:28:56;9.30;;;7.70;;
19566;SDS011;9930;49.240;8.548;2022-12-16T14:31:41;10.43;;;7.80;;
19566;SDS011;9930;49.240;8.548;2022-12-16T14:34:30;10.87;;;8.27;;
19566;SDS011;9930;49.240;8.548;2022-12-16T14:37:20;10.50;;;8.63;;
19566;SDS011;9930;49.240;8.548;2022-12-16T14:40:21;10.00;;;8.13;;
19566;SDS011;9930;49.240;8.548;2022-12-16T14:43:13;10.47;;;8.30;;
19566;SDS011;9930;49.240;8.548;2022-12-16T14:46:03;9.33;;;7.23;;
19566;SDS011;9930;49.240;8.548;2022-12-16T14:48:49;9.63;;;7.77;;
19566;SDS011;9930;49.240;8.548;2022-12-16T14:51:37;8.83;;;7.87;;
19566;SDS011;9930;49.240;8.548;2022-12-16T14:57:28;10.63;;;8.50;;
19566;SDS011;9930;49.240;8.548;2022-12-16T15:00:17;10.20;;;8.27;;
19566;SDS011;9930;49.240;8.548;2022-12-16T15:03:10;9.77;;;8.40;;
19566;SDS011;9930;49.240;8.548;2022-12-16T15:06:31;10.13;;;7.90;;
19566;SDS011;9930;49.240;8.548;2022-12-16T15:09:26;9.13;;;7.80;;
19566;SDS011;9930;49.240;8.548;2022-12-16T15:12:25;8.60;;;7.47;;
19566;SDS011;9930;49.240;8.548;2022-12-16T15:15:40;9.47;;;8.27;;
19566;SDS011;9930;49.240;8.548;2022-12-16T15:21:24;9.43;;;7.90;;
19566;SDS011;9930;49.240;8.548;2022-12-16T15:24:09;10.33;;;8.63;;
19566;SDS011;9930;49.240;8.548;2022-12-16T15:27:12;9.87;;;8.60;;
19566;SDS011;9930;49.240;8.548;2022-12-16T15:33:28;11.67;;;9.57;;
19566;SDS011;9930;49.240;8.548;2022-12-16T15:36:23;12.30;;;9.83;;
19566;SDS011;9930;49.240;8.548;2022-12-16T15:42:24;12.13;;;10.03;;
19566;SDS011;9930;49.240;8.548;2022-12-16T15:45:26;10.57;;;8.83;;
19566;SDS011;9930;49.240;8.548;2022-12-16T15:54:27;10.53;;;8.73;;
19566;SDS011;9930;49.240;8.548;2022-12-16T15:57:23;11.23;;;8.80;;
19566;SDS011;9930;49.240;8.548;2022-12-16T16:00:27;10.53;;;8.70;;
19566;SDS011;9930;49.240;8.548;2022-12-16T16:03:37;10.47;;;8.70;;
19566;SDS011;9930;49.240;8.548;2022-12-16T16:06:24;9.80;;;8.37;;
19566;SDS011;9930;49.240;8.548;2022-12-16T16:12:13;12.13;;;9.70;;
19566;SDS011;9930;49.240;8.548;2022-12-16T16:15:00;11.67;;;10.40;;
19566;SDS011;9930;49.240;8.548;2022-12-16T16:17:50;21.03;;;17.40;;
19566;SDS011;9930;49.240;8.548;2022-12-16T16:20:40;13.33;;;11.77;;
19566;SDS011;9930;49.240;8.548;2022-12-16T16:23:25;13.00;;;11.60;;
19566;SDS011;9930;49.240;8.548;2022-12-16T16:26:10;10.87;;;9.43;;
19566;SDS011;9930;49.240;8.548;2022-12-16T16:28:59;10.70;;;9.43;;
19566;SDS011;9930;49.240;8.548;2022-12-16T16:31:44;11.50;;;10.23;;
19566;SDS011;9930;49.240;8.548;2022-12-16T16:34:28;11.70;;;10.07;;
19566;SDS011;9930;49.240;8.548;2022-12-16T16:37:15;11.07;;;9.57;;
19566;SDS011;9930;49.240;8.548;2022-12-16T16:40:17;10.47;;;9.23;;
19566;SDS011;9930;49.240;8.548;2022-12-16T16:43:24;9.47;;;8.10;;
19566;SDS011;9930;49.240;8.548;2022-12-16T16:49:04;10.10;;;8.60;;
19566;SDS011;9930;49.240;8.548;2022-12-16T16:52:01;9.13;;;8.03;;
19566;SDS011;9930;49.240;8.548;2022-12-16T16:54:47;10.07;;;8.57;;
19566;SDS011;9930;49.240;8.548;2022-12-16T16:57:32;11.40;;;9.43;;
19566;SDS011;9930;49.240;8.548;2022-12-16T17:00:20;10.20;;;8.63;;
19566;SDS011;9930;49.240;8.548;2022-12-16T17:03:06;12.07;;;8.30;;
19566;SDS011;9930;49.240;8.548;2022-12-16T17:05:54;12.37;;;10.33;;
19566;SDS011;9930;49.240;8.548;2022-12-16T17:08:41;11.27;;;9.13;;
19566;SDS011;9930;49.240;8.548;2022-12-16T17:11:26;12.17;;;10.27;;
19566;SDS011;9930;49.240;8.548;2022-12-16T17:14:12;10.90;;;9.23;;
19566;SDS011;9930;49.240;8.548;2022-12-16T17:17:00;10.53;;;8.67;;
19566;SDS011;9930;49.240;8.548;2022-12-16T17:19:44;11.53;;;9.80;;
19566;SDS011;9930;49.240;8.548;2022-12-16T17:22:29;11.47;;;10.27;;
19566;SDS011;9930;49.240;8.548;2022-12-16T17:25:14;11.00;;;8.90;;
19566;SDS011;9930;49.240;8.548;2022-12-16T17:27:59;14.73;;;10.60;;
19566;SDS011;9930;49.240;8.548;2022-12-16T17:30:44;10.97;;;9.67;;
19566;SDS011;9930;49.240;8.548;2022-12-16T17:33:28;9.47;;;8.30;;
19566;SDS011;9930;49.240;8.548;2022-12-16T17:36:16;12.40;;;9.43;;
19566;SDS011;9930;49.240;8.548;2022-12-16T17:39:01;11.13;;;8.93;;
19566;SDS011;9930;49.240;8.548;2022-12-16T17:41:51;10.63;;;8.73;;
19566;SDS011;9930;49.240;8.548;2022-12-16T17:44:37;9.43;;;8.00;;
19566;SDS011;9930;49.240;8.548;2022-12-16T17:47:21;9.87;;;8.10;;
19566;SDS011;9930;49.240;8.548;2022-12-16T17:50:06;9.50;;;8.10;;
19566;SDS011;9930;49.240;8.548;2022-12-16T17:52:52;10.37;;;7.73;;
19566;SDS011;9930;49.240;8.548;2022-12-16T17:55:40;10.73;;;9.33;;
19566;SDS011;9930;49.240;8.548;2022-12-16T17:58:29;10.97;;;9.40;;
19566;SDS011;9930;49.240;8.548;2022-12-16T18:01:23;10.27;;;8.53;;
19566;SDS011;9930;49.240;8.548;2022-12-16T18:04:08;9.27;;;7.97;;
19566;SDS011;9930;49.240;8.548;2022-12-16T18:06:52;10.10;;;8.57;;
19566;SDS011;9930;49.240;8.548;2022-12-16T18:09:37;10.47;;;8.33;;
19566;SDS011;9930;49.240;8.548;2022-12-16T18:12:21;8.70;;;7.63;;
19566;SDS011;9930;49.240;8.548;2022-12-16T18:15:11;11.17;;;8.33;;
19566;SDS011;9930;49.240;8.548;2022-12-16T18:17:56;9.63;;;7.87;;
19566;SDS011;9930;49.240;8.548;2022-12-16T18:20:40;9.00;;;7.87;;
19566;SDS011;9930;49.240;8.548;2022-12-16T18:23:27;10.50;;;8.80;;
19566;SDS011;9930;49.240;8.548;2022-12-16T18:26:13;11.17;;;8.90;;
19566;SDS011;9930;49.240;8.548;2022-12-16T18:28:57;10.57;;;8.60;;
19566;SDS011;9930;49.240;8.548;2022-12-16T18:31:41;12.67;;;9.87;;
19566;SDS011;9930;49.240;8.548;2022-12-16T18:34:25;11.83;;;9.87;;
19566;SDS011;9930;49.240;8.548;2022-12-16T18:37:10;13.70;;;10.90;;
19566;SDS011;9930;49.240;8.548;2022-12-16T18:40:00;9.80;;;8.80;;
19566;SDS011;9930;49.240;8.548;2022-12-16T18:42:44;11.20;;;9.27;;
19566;SDS011;9930;49.240;8.548;2022-12-16T18:45:29;13.53;;;11.17;;
19566;SDS011;9930;49.240;8.548;2022-12-16T18:48:15;13.13;;;10.33;;
19566;SDS011;9930;49.240;8.548;2022-12-16T18:51:00;11.77;;;10.07;;
19566;SDS011;9930;49.240;8.548;2022-12-16T18:53:48;14.37;;;9.83;;
19566;SDS011;9930;49.240;8.548;2022-12-16T18:56:37;11.63;;;8.90;;
19566;SDS011;9930;49.240;8.548;2022-12-16T18:59:21;12.27;;;8.70;;
19566;SDS011;9930;49.240;8.548;2022-12-16T19:02:07;8.93;;;7.80;;
19566;SDS011;9930;49.240;8.548;2022-12-16T19:04:52;10.27;;;8.63;;
19566;SDS011;9930;49.240;8.548;2022-12-16T19:07:38;11.77;;;8.03;;
19566;SDS011;9930;49.240;8.548;2022-12-16T19:10:22;11.20;;;9.17;;
19566;SDS011;9930;49.240;8.548;2022-12-16T19:13:10;10.57;;;8.33;;
19566;SDS011;9930;49.240;8.548;2022-12-16T19:16:01;12.07;;;8.93;;
19566;SDS011;9930;49.240;8.548;2022-12-16T19:18:47;11.70;;;9.53;;
19566;SDS011;9930;49.240;8.548;2022-12-16T19:21:40;13.97;;;10.70;;
19566;SDS011;9930;49.240;8.548;2022-12-16T19:24:24;15.83;;;11.90;;
19566;SDS011;9930;49.240;8.548;2022-12-16T19:27:08;19.23;;;15.20;;
19566;SDS011;9930;49.240;8.548;2022-12-16T19:29:52;21.60;;;16.07;;
19566;SDS011;9930;49.240;8.548;2022-12-16T19:32:37;22.13;;;17.43;;
19566;SDS011;9930;49.240;8.548;2022-12-16T19:35:21;21.93;;;15.77;;